sensor_id;sensor_type;location;lat;lon;timestamp;pressure;altitude;pressure_sealevel;temperature;humidity
75418;BME280;63997;52.112;5.420;2023-07-20T00:00:55;101538.00;;;16.64;85.22
75418;BME280;63997;52.112;5.420;2023-07-20T00:03:21;101538.00;;;16.64;85.40
75418;BME280;63997;52.112;5.420;2023-07-20T00:05:51;101537.56;;;16.62;84.98
75418;BME280;63997;52.112;5.420;2023-07-20T00:08:18;101536.44;;;16.63;85.23
75418;BME280;63997;52.112;5.420;2023-07-20T00:10:46;101534.41;;;16.60;85.09
75418;BME280;63997;52.112;5.420;2023-07-20T00:13:15;101540.13;;;16.59;85.24
75418;BME280;63997;52.112;5.420;2023-07-20T00:15:47;101535.78;;;16.54;85.03
75418;BME280;63997;52.112;5.420;2023-07-20T00:18:13;101534.94;;;16.50;85.15
75418;BME280;63997;52.112;5.420;2023-07-20T00:20:40;101532.56;;;16.49;84.96
75418;BME280;63997;52.112;5.420;2023-07-20T00:23:10;101530.13;;;16.44;84.89
75418;BME280;63997;52.112;5.420;2023-07-20T00:25:39;101532.72;;;16.40;85.14
75418;BME280;63997;52.112;5.420;2023-07-20T00:28:07;101540.66;;;16.36;85.38
75418;BME280;63997;52.112;5.420;2023-07-20T00:30:33;101542.16;;;16.34;85.18
75418;BME280;63997;52.112;5.420;2023-07-20T00:33:00;101541.38;;;16.33;84.96
75418;BME280;63997;52.112;5.420;2023-07-20T00:35:26;101537.09;;;16.32;85.22
75418;BME280;63997;52.112;5.420;2023-07-20T00:37:53;101529.75;;;16.29;84.79
75418;BME280;63997;52.112;5.420;2023-07-20T00:40:19;101526.94;;;16.26;84.76
75418;BME280;63997;52.112;5.420;2023-07-20T00:42:46;101535.69;;;16.23;84.81
75418;BME280;63997;52.112;5.420;2023-07-20T00:45:12;101531.78;;;16.20;84.99
75418;BME280;63997;52.112;5.420;2023-07-20T00:47:38;101536.34;;;16.20;84.95
75418;BME280;63997;52.112;5.420;2023-07-20T00:50:06;101535.59;;;16.19;84.99
75418;BME280;63997;52.112;5.420;2023-07-20T00:52:35;101529.88;;;16.21;84.90
75418;BME280;63997;52.112;5.420;2023-07-20T00:55:07;101523.28;;;16.18;84.94
75418;BME280;63997;52.112;5.420;2023-07-20T00:57:34;101534.38;;;16.17;84.97
75418;BME280;63997;52.112;5.420;2023-07-20T01:00:00;101532.78;;;16.16;84.47
75418;BME280;63997;52.112;5.420;2023-07-20T01:02:26;101536.16;;;16.12;84.60
75418;BME280;63997;52.112;5.420;2023-07-20T01:04:53;101537.06;;;16.04;84.40
75418;BME280;63997;52.112;5.420;2023-07-20T01:07:27;101536.84;;;15.97;84.52
75418;BME280;63997;52.112;5.420;2023-07-20T01:10:09;101539.34;;;15.90;84.01
75418;BME280;63997;52.112;5.420;2023-07-20T01:12:47;101545.94;;;15.80;83.70
75418;BME280;63997;52.112;5.420;2023-07-20T01:15:14;101539.22;;;15.74;84.01
75418;BME280;63997;52.112;5.420;2023-07-20T01:17:44;101529.84;;;15.68;84.27
75418;BME280;63997;52.112;5.420;2023-07-20T01:20:15;101539.22;;;15.62;84.40
75418;BME280;63997;52.112;5.420;2023-07-20T01:28:35;101534.72;;;15.42;84.23
75418;BME280;63997;52.112;5.420;2023-07-20T01:31:23;101538.97;;;15.30;84.21
75418;BME280;63997;52.112;5.420;2023-07-20T01:33:54;101545.66;;;15.24;84.87
75418;BME280;63997;52.112;5.420;2023-07-20T01:36:23;101542.31;;;15.15;84.47
75418;BME280;63997;52.112;5.420;2023-07-20T01:38:52;101540.16;;;15.08;84.79
75418;BME280;63997;52.112;5.420;2023-07-20T01:41:19;101547.75;;;15.06;84.67
75418;BME280;63997;52.112;5.420;2023-07-20T01:43:46;101538.16;;;15.05;84.98
75418;BME280;63997;52.112;5.420;2023-07-20T01:46:15;101537.25;;;15.01;84.57
75418;BME280;63997;52.112;5.420;2023-07-20T01:48:41;101540.91;;;14.97;84.45
75418;BME280;63997;52.112;5.420;2023-07-20T01:51:08;101537.56;;;14.88;84.36
75418;BME280;63997;52.112;5.420;2023-07-20T01:53:34;101539.19;;;14.80;84.51
75418;BME280;63997;52.112;5.420;2023-07-20T01:56:01;101548.56;;;14.74;84.40
75418;BME280;63997;52.112;5.420;2023-07-20T01:58:27;101548.56;;;14.74;84.66
75418;BME280;63997;52.112;5.420;2023-07-20T02:00:54;101549.34;;;14.74;84.01
75418;BME280;63997;52.112;5.420;2023-07-20T02:03:20;101556.13;;;14.72;83.30
75418;BME280;63997;52.112;5.420;2023-07-20T02:05:48;101547.63;;;14.70;83.28
75418;BME280;63997;52.112;5.420;2023-07-20T02:08:14;101546.75;;;14.66;83.78
75418;BME280;63997;52.112;5.420;2023-07-20T02:10:45;101545.97;;;14.65;83.48
75418;BME280;63997;52.112;5.420;2023-07-20T02:13:11;101545.50;;;14.63;83.35
75418;BME280;63997;52.112;5.420;2023-07-20T02:15:38;101547.41;;;14.63;83.10
75418;BME280;63997;52.112;5.420;2023-07-20T02:18:04;101546.47;;;14.59;83.27
75418;BME280;63997;52.112;5.420;2023-07-20T02:20:31;101545.69;;;14.58;83.93
75418;BME280;63997;52.112;5.420;2023-07-20T02:22:59;101549.63;;;14.61;83.78
75418;BME280;63997;52.112;5.420;2023-07-20T02:25:27;101551.81;;;14.59;83.81
75418;BME280;63997;52.112;5.420;2023-07-20T02:27:57;101553.63;;;14.54;84.34
75418;BME280;63997;52.112;5.420;2023-07-20T02:30:24;101550.03;;;14.50;84.72
75418;BME280;63997;52.112;5.420;2023-07-20T02:32:51;101560.59;;;14.47;85.01
75418;BME280;63997;52.112;5.420;2023-07-20T02:35:17;101553.97;;;14.44;85.15
75418;BME280;63997;52.112;5.420;2023-07-20T02:37:44;101552.72;;;14.42;85.34
75418;BME280;63997;52.112;5.420;2023-07-20T02:40:11;101557.50;;;14.36;85.05
75418;BME280;63997;52.112;5.420;2023-07-20T02:42:37;101550.78;;;14.30;85.32
75418;BME280;63997;52.112;5.420;2023-07-20T02:45:04;101552.06;;;14.24;85.12
75418;BME280;63997;52.112;5.420;2023-07-20T02:47:31;101547.59;;;14.16;85.40
75418;BME280;63997;52.112;5.420;2023-07-20T02:49:58;101553.13;;;14.11;85.59
75418;BME280;63997;52.112;5.420;2023-07-20T02:52:27;101553.66;;;14.04;84.75
75418;BME280;63997;52.112;5.420;2023-07-20T02:54:58;101555.56;;;13.95;84.82
75418;BME280;63997;52.112;5.420;2023-07-20T02:57:28;101563.66;;;13.86;84.59
75418;BME280;63997;52.112;5.420;2023-07-20T02:59:54;101566.53;;;13.81;84.73
75418;BME280;63997;52.112;5.420;2023-07-20T03:02:21;101574.72;;;13.76;84.60
75418;BME280;63997;52.112;5.420;2023-07-20T03:04:47;101582.13;;;13.70;84.69
75418;BME280;63997;52.112;5.420;2023-07-20T03:07:14;101580.88;;;13.68;85.12
75418;BME280;63997;52.112;5.420;2023-07-20T03:09:40;101584.47;;;13.72;85.28
75418;BME280;63997;52.112;5.420;2023-07-20T03:12:07;101581.47;;;13.73;85.94
75418;BME280;63997;52.112;5.420;2023-07-20T03:14:35;101590.47;;;13.69;85.67
75418;BME280;63997;52.112;5.420;2023-07-20T03:17:02;101593.78;;;13.66;85.55
75418;BME280;63997;52.112;5.420;2023-07-20T03:19:28;101598.47;;;13.69;85.49
75418;BME280;63997;52.112;5.420;2023-07-20T03:21:55;101603.19;;;13.72;85.56
75418;BME280;63997;52.112;5.420;2023-07-20T03:24:21;101606.47;;;13.77;85.95
75418;BME280;63997;52.112;5.420;2023-07-20T03:26:48;101611.50;;;13.79;85.33
75418;BME280;63997;52.112;5.420;2023-07-20T03:29:14;101605.38;;;13.79;84.59
75418;BME280;63997;52.112;5.420;2023-07-20T03:31:43;101595.78;;;13.77;84.81
75418;BME280;63997;52.112;5.420;2023-07-20T03:34:11;101588.53;;;13.78;84.98
75418;BME280;63997;52.112;5.420;2023-07-20T03:36:41;101593.56;;;13.80;85.11
75418;BME280;63997;52.112;5.420;2023-07-20T03:39:07;101590.09;;;13.79;85.33
75418;BME280;63997;52.112;5.420;2023-07-20T03:41:34;101591.88;;;13.75;85.40
75418;BME280;63997;52.112;5.420;2023-07-20T03:44:00;101592.06;;;13.70;84.83
75418;BME280;63997;52.112;5.420;2023-07-20T03:46:27;101597.41;;;13.61;85.13
75418;BME280;63997;52.112;5.420;2023-07-20T03:48:56;101597.75;;;13.60;85.60
75418;BME280;63997;52.112;5.420;2023-07-20T03:51:26;101596.81;;;13.56;85.35
75418;BME280;63997;52.112;5.420;2023-07-20T03:53:52;101594.63;;;13.49;85.03
75418;BME280;63997;52.112;5.420;2023-07-20T03:56:19;101602.00;;;13.52;85.60
75418;BME280;63997;52.112;5.420;2023-07-20T03:58:46;101600.59;;;13.55;85.29
75418;BME280;63997;52.112;5.420;2023-07-20T04:01:13;101598.38;;;13.57;84.42
75418;BME280;63997;52.112;5.420;2023-07-20T04:03:39;101602.16;;;13.56;84.22
75418;BME280;63997;52.112;5.420;2023-07-20T04:06:05;101608.59;;;13.55;83.57
75418;BME280;63997;52.112;5.420;2023-07-20T04:08:32;101601.88;;;13.48;83.48
75418;BME280;63997;52.112;5.420;2023-07-20T04:11:01;101612.41;;;13.45;83.08
75418;BME280;63997;52.112;5.420;2023-07-20T04:13:28;101607.06;;;13.45;83.79
75418;BME280;63997;52.112;5.420;2023-07-20T04:15:55;101611.78;;;13.48;83.96
75418;BME280;63997;52.112;5.420;2023-07-20T04:18:26;101614.13;;;13.49;83.72
75418;BME280;63997;52.112;5.420;2023-07-20T04:20:54;101609.41;;;13.46;83.54
75418;BME280;63997;52.112;5.420;2023-07-20T04:23:23;101620.59;;;13.48;83.90
75418;BME280;63997;52.112;5.420;2023-07-20T04:25:50;101616.63;;;13.55;84.48
75418;BME280;63997;52.112;5.420;2023-07-20T04:28:18;101621.94;;;13.63;85.23
75418;BME280;63997;52.112;5.420;2023-07-20T04:30:44;101627.88;;;13.69;85.55
75418;BME280;63997;52.112;5.420;2023-07-20T04:33:10;101622.69;;;13.72;85.77
75418;BME280;63997;52.112;5.420;2023-07-20T04:35:52;101627.41;;;13.75;86.51
75418;BME280;63997;52.112;5.420;2023-07-20T04:38:21;101633.03;;;13.83;86.50
75418;BME280;63997;52.112;5.420;2023-07-20T04:40:49;101633.19;;;13.86;86.28
75418;BME280;63997;52.112;5.420;2023-07-20T04:43:17;101631.28;;;13.87;85.74
75418;BME280;63997;52.112;5.420;2023-07-20T04:45:45;101633.19;;;13.86;85.28
75418;BME280;63997;52.112;5.420;2023-07-20T04:48:14;101638.06;;;13.84;85.11
75418;BME280;63997;52.112;5.420;2023-07-20T04:50:43;101631.94;;;13.84;85.13
75418;BME280;63997;52.112;5.420;2023-07-20T04:53:10;101634.75;;;13.87;85.16
75418;BME280;63997;52.112;5.420;2023-07-20T04:55:38;101638.53;;;13.86;85.06
75418;BME280;63997;52.112;5.420;2023-07-20T04:58:06;101629.84;;;13.89;85.02
75418;BME280;63997;52.112;5.420;2023-07-20T05:00:34;101640.22;;;13.91;85.35
75418;BME280;63997;52.112;5.420;2023-07-20T05:03:01;101628.91;;;13.94;85.34
75418;BME280;63997;52.112;5.420;2023-07-20T05:05:27;101636.59;;;13.95;85.62
75418;BME280;63997;52.112;5.420;2023-07-20T05:07:54;101631.38;;;13.99;85.46
75418;BME280;63997;52.112;5.420;2023-07-20T05:10:20;101629.50;;;13.99;85.69
75418;BME280;63997;52.112;5.420;2023-07-20T05:12:47;101634.50;;;14.01;86.25
75418;BME280;63997;52.112;5.420;2023-07-20T05:15:13;101633.22;;;14.07;86.04
75418;BME280;63997;52.112;5.420;2023-07-20T05:17:40;101642.97;;;14.12;86.44
75418;BME280;63997;52.112;5.420;2023-07-20T05:20:07;101635.09;;;14.15;86.69
75418;BME280;63997;52.112;5.420;2023-07-20T05:22:36;101632.22;;;14.20;86.77
75418;BME280;63997;52.112;5.420;2023-07-20T05:25:07;101630.59;;;14.28;87.00
75418;BME280;63997;52.112;5.420;2023-07-20T05:27:38;101633.41;;;14.32;87.29
75418;BME280;63997;52.112;5.420;2023-07-20T05:30:06;101625.97;;;14.37;87.55
75418;BME280;63997;52.112;5.420;2023-07-20T05:32:33;101628.47;;;14.42;87.63
75418;BME280;63997;52.112;5.420;2023-07-20T05:35:00;101629.53;;;14.50;87.59
75418;BME280;63997;52.112;5.420;2023-07-20T05:37:28;101640.38;;;14.53;87.72
75418;BME280;63997;52.112;5.420;2023-07-20T05:39:55;101636.72;;;14.58;87.94
75418;BME280;63997;52.112;5.420;2023-07-20T05:42:22;101638.41;;;14.63;88.34
75418;BME280;63997;52.112;5.420;2023-07-20T05:44:50;101637.88;;;14.69;88.66
75418;BME280;63997;52.112;5.420;2023-07-20T05:47:19;101635.16;;;14.78;88.32
75418;BME280;63997;52.112;5.420;2023-07-20T05:49:45;101633.19;;;14.87;88.53
75418;BME280;63997;52.112;5.420;2023-07-20T05:52:12;101631.22;;;14.96;88.24
75418;BME280;63997;52.112;5.420;2023-07-20T05:54:38;101630.38;;;15.04;88.62
75418;BME280;63997;52.112;5.420;2023-07-20T05:57:05;101625.69;;;15.14;88.30
75418;BME280;63997;52.112;5.420;2023-07-20T05:59:31;101632.19;;;15.25;88.21
75418;BME280;63997;52.112;5.420;2023-07-20T06:01:58;101627.41;;;15.30;87.72
75418;BME280;63997;52.112;5.420;2023-07-20T06:04:26;101632.91;;;15.46;87.52
75418;BME280;63997;52.112;5.420;2023-07-20T06:06:56;101632.09;;;15.67;86.71
75418;BME280;63997;52.112;5.420;2023-07-20T06:09:22;101626.38;;;16.82;87.95
75418;BME280;63997;52.112;5.420;2023-07-20T06:11:48;101629.84;;;18.40;80.59
75418;BME280;63997;52.112;5.420;2023-07-20T06:14:15;101643.00;;;19.19;78.93
75418;BME280;63997;52.112;5.420;2023-07-20T06:16:42;101635.94;;;20.63;71.07
75418;BME280;63997;52.112;5.420;2023-07-20T06:19:08;101634.03;;;20.07;69.19
75418;BME280;63997;52.112;5.420;2023-07-20T06:21:38;101647.09;;;19.33;71.74
75418;BME280;63997;52.112;5.420;2023-07-20T06:24:08;101643.53;;;19.28;73.23
75418;BME280;63997;52.112;5.420;2023-07-20T06:26:37;101639.09;;;19.40;72.07
75418;BME280;63997;52.112;5.420;2023-07-20T06:29:06;101633.34;;;19.87;71.12
75418;BME280;63997;52.112;5.420;2023-07-20T06:31:34;101637.53;;;21.01;65.50
75418;BME280;63997;52.112;5.420;2023-07-20T06:34:05;101643.97;;;20.29;65.83
75418;BME280;63997;52.112;5.420;2023-07-20T06:36:35;101643.53;;;19.71;65.75
75418;BME280;63997;52.112;5.420;2023-07-20T06:39:02;101650.75;;;19.44;67.43
75418;BME280;63997;52.112;5.420;2023-07-20T06:41:34;101655.84;;;19.49;66.00
75418;BME280;63997;52.112;5.420;2023-07-20T06:44:03;101658.19;;;19.50;67.23
75418;BME280;63997;52.112;5.420;2023-07-20T06:46:31;101654.47;;;20.95;64.50
75418;BME280;63997;52.112;5.420;2023-07-20T06:48:57;101650.56;;;23.80;55.03
75418;BME280;63997;52.112;5.420;2023-07-20T06:51:27;101651.91;;;26.53;48.66
75418;BME280;63997;52.112;5.420;2023-07-20T06:53:53;101656.81;;;26.31;47.44
75418;BME280;63997;52.112;5.420;2023-07-20T06:56:19;101659.41;;;25.18;50.18
75418;BME280;63997;52.112;5.420;2023-07-20T06:58:51;101657.28;;;24.81;49.31
75418;BME280;63997;52.112;5.420;2023-07-20T07:01:18;101662.13;;;24.38;51.25
75418;BME280;63997;52.112;5.420;2023-07-20T07:03:45;101665.91;;;24.65;49.55
75418;BME280;63997;52.112;5.420;2023-07-20T07:06:11;101666.09;;;23.69;49.97
75418;BME280;63997;52.112;5.420;2023-07-20T07:08:38;101678.34;;;22.84;54.46
75418;BME280;63997;52.112;5.420;2023-07-20T07:11:05;101676.44;;;22.15;57.23
75418;BME280;63997;52.112;5.420;2023-07-20T07:13:31;101676.84;;;21.70;58.93
75418;BME280;63997;52.112;5.420;2023-07-20T07:15:58;101675.22;;;21.58;60.18
75418;BME280;63997;52.112;5.420;2023-07-20T07:18:24;101659.84;;;23.90;54.86
75418;BME280;63997;52.112;5.420;2023-07-20T07:20:52;101660.25;;;25.60;51.16
75418;BME280;63997;52.112;5.420;2023-07-20T07:23:19;101659.94;;;27.22;45.94
75418;BME280;63997;52.112;5.420;2023-07-20T07:25:45;101652.56;;;26.92;44.58
75418;BME280;63997;52.112;5.420;2023-07-20T07:28:12;101660.72;;;27.73;41.04
75418;BME280;63997;52.112;5.420;2023-07-20T07:30:39;101671.09;;;26.46;42.74
75418;BME280;63997;52.112;5.420;2023-07-20T07:33:05;101678.28;;;24.77;46.29
75418;BME280;63997;52.112;5.420;2023-07-20T07:35:32;101678.50;;;23.70;48.12
75418;BME280;63997;52.112;5.420;2023-07-20T07:37:59;101679.97;;;23.03;49.75
75418;BME280;63997;52.112;5.420;2023-07-20T07:40:46;101679.34;;;22.55;51.36
75418;BME280;63997;52.112;5.420;2023-07-20T07:43:13;101670.31;;;22.26;52.78
75418;BME280;63997;52.112;5.420;2023-07-20T07:45:40;101684.81;;;22.00;52.78
75418;BME280;63997;52.112;5.420;2023-07-20T07:48:07;101685.31;;;21.61;53.82
75418;BME280;63997;52.112;5.420;2023-07-20T07:50:34;101683.91;;;21.37;55.04
75418;BME280;63997;52.112;5.420;2023-07-20T07:53:01;101683.75;;;21.23;54.52
75418;BME280;63997;52.112;5.420;2023-07-20T07:55:27;101682.84;;;21.11;55.05
75418;BME280;63997;52.112;5.420;2023-07-20T07:57:54;101675.19;;;21.17;55.11
75418;BME280;63997;52.112;5.420;2023-07-20T08:00:22;101675.41;;;22.34;51.45
75418;BME280;63997;52.112;5.420;2023-07-20T08:02:51;101672.03;;;22.59;53.04
75418;BME280;63997;52.112;5.420;2023-07-20T08:05:22;101679.19;;;22.23;53.71
75418;BME280;63997;52.112;5.420;2023-07-20T08:07:48;101681.50;;;22.17;55.50
75418;BME280;63997;52.112;5.420;2023-07-20T08:10:14;101678.19;;;21.90;53.13
75418;BME280;63997;52.112;5.420;2023-07-20T08:12:41;101682.66;;;21.72;55.41
75418;BME280;63997;52.112;5.420;2023-07-20T08:15:10;101669.28;;;21.89;56.49
75418;BME280;63997;52.112;5.420;2023-07-20T08:17:37;101672.13;;;22.11;56.19
75418;BME280;63997;52.112;5.420;2023-07-20T08:20:04;101673.41;;;22.24;55.18
75418;BME280;63997;52.112;5.420;2023-07-20T08:22:32;101675.75;;;22.29;56.77
75418;BME280;63997;52.112;5.420;2023-07-20T08:24:59;101671.00;;;22.15;56.58
75418;BME280;63997;52.112;5.420;2023-07-20T08:27:25;101672.56;;;22.16;56.31
75418;BME280;63997;52.112;5.420;2023-07-20T08:29:52;101671.81;;;22.20;50.54
75418;BME280;63997;52.112;5.420;2023-07-20T08:32:18;101677.91;;;22.09;51.06
75418;BME280;63997;52.112;5.420;2023-07-20T08:34:44;101676.50;;;22.23;51.65
75418;BME280;63997;52.112;5.420;2023-07-20T08:37:11;101676.44;;;22.15;50.83
75418;BME280;63997;52.112;5.420;2023-07-20T08:39:37;101684.78;;;21.96;50.02
75418;BME280;63997;52.112;5.420;2023-07-20T08:42:05;101677.44;;;21.97;50.91
75418;BME280;63997;52.112;5.420;2023-07-20T08:44:33;101685.63;;;22.04;50.18
75418;BME280;63997;52.112;5.420;2023-07-20T08:47:01;101684.69;;;21.82;49.60
75418;BME280;63997;52.112;5.420;2023-07-20T08:49:31;101687.00;;;21.80;46.71
75418;BME280;63997;52.112;5.420;2023-07-20T08:51:59;101687.88;;;21.95;48.27
75418;BME280;63997;52.112;5.420;2023-07-20T08:54:30;101676.81;;;22.14;49.39
75418;BME280;63997;52.112;5.420;2023-07-20T08:57:03;101683.78;;;22.11;43.88
75418;BME280;63997;52.112;5.420;2023-07-20T08:59:30;101691.91;;;22.15;47.22
75418;BME280;63997;52.112;5.420;2023-07-20T09:01:59;101681.50;;;22.17;43.74
75418;BME280;63997;52.112;5.420;2023-07-20T09:04:26;101679.63;;;22.28;44.86
75418;BME280;63997;52.112;5.420;2023-07-20T09:06:53;101677.28;;;22.27;45.04
75418;BME280;63997;52.112;5.420;2023-07-20T09:09:19;101678.03;;;22.24;50.38
75418;BME280;63997;52.112;5.420;2023-07-20T09:11:49;101680.34;;;22.22;46.10
75418;BME280;63997;52.112;5.420;2023-07-20T09:14:17;101672.19;;;22.18;48.37
75418;BME280;63997;52.112;5.420;2023-07-20T09:16:52;101671.09;;;22.33;47.56
75418;BME280;63997;52.112;5.420;2023-07-20T09:19:18;101671.22;;;22.51;47.52
75418;BME280;63997;52.112;5.420;2023-07-20T09:21:46;101673.53;;;22.46;47.25
75418;BME280;63997;52.112;5.420;2023-07-20T09:24:13;101672.63;;;22.27;49.48
75418;BME280;63997;52.112;5.420;2023-07-20T09:26:43;101676.53;;;22.33;51.43
75418;BME280;63997;52.112;5.420;2023-07-20T09:29:10;101682.03;;;22.48;50.75
75418;BME280;63997;52.112;5.420;2023-07-20T09:31:37;101680.06;;;22.41;49.98
75418;BME280;63997;52.112;5.420;2023-07-20T09:34:06;101674.69;;;22.55;47.21
75418;BME280;63997;52.112;5.420;2023-07-20T09:36:34;101674.34;;;22.60;47.22
75418;BME280;63997;52.112;5.420;2023-07-20T09:39:04;101674.44;;;22.82;47.50
75418;BME280;63997;52.112;5.420;2023-07-20T09:41:40;101665.06;;;22.65;44.55
75418;BME280;63997;52.112;5.420;2023-07-20T09:44:15;101668.16;;;22.67;46.90
75418;BME280;63997;52.112;5.420;2023-07-20T09:46:48;101665.13;;;22.79;45.95
75418;BME280;63997;52.112;5.420;2023-07-20T09:49:18;101672.56;;;22.93;45.78
75418;BME280;63997;52.112;5.420;2023-07-20T09:51:48;101668.31;;;23.06;47.35
75418;BME280;63997;52.112;5.420;2023-07-20T09:54:15;101663.72;;;23.21;46.35
75418;BME280;63997;52.112;5.420;2023-07-20T09:56:42;101662.19;;;23.41;44.82
75418;BME280;63997;52.112;5.420;2023-07-20T09:59:09;101661.41;;;23.44;41.29
75418;BME280;63997;52.112;5.420;2023-07-20T10:01:37;101657.13;;;23.18;42.55
75418;BME280;63997;52.112;5.420;2023-07-20T10:04:08;101666.75;;;22.94;44.27
75418;BME280;63997;52.112;5.420;2023-07-20T10:06:39;101664.72;;;22.77;45.67
75418;BME280;63997;52.112;5.420;2023-07-20T10:09:10;101660.47;;;22.76;43.58
75418;BME280;63997;52.112;5.420;2023-07-20T10:11:43;101662.75;;;22.67;46.31
75418;BME280;63997;52.112;5.420;2023-07-20T10:14:12;101663.47;;;22.53;48.26
75418;BME280;63997;52.112;5.420;2023-07-20T10:16:43;101658.44;;;22.52;45.39
75418;BME280;63997;52.112;5.420;2023-07-20T10:19:37;101661.16;;;22.52;46.88
75418;BME280;63997;52.112;5.420;2023-07-20T10:22:19;101664.59;;;22.49;43.68
75418;BME280;63997;52.112;5.420;2023-07-20T10:24:47;101656.13;;;22.57;44.52
75418;BME280;63997;52.112;5.420;2023-07-20T10:27:14;101664.34;;;22.82;41.31
75418;BME280;63997;52.112;5.420;2023-07-20T10:29:41;101652.34;;;22.83;44.38
75418;BME280;63997;52.112;5.420;2023-07-20T10:32:09;101653.97;;;22.91;41.07
75418;BME280;63997;52.112;5.420;2023-07-20T10:34:37;101646.25;;;23.08;42.01
75418;BME280;63997;52.112;5.420;2023-07-20T10:37:04;101644.72;;;23.21;38.67
75418;BME280;63997;52.112;5.420;2023-07-20T10:39:31;101646.66;;;23.28;40.51
75418;BME280;63997;52.112;5.420;2023-07-20T10:42:07;101644.31;;;23.33;41.06
75418;BME280;63997;52.112;5.420;2023-07-20T10:44:37;101645.09;;;23.44;42.28
75418;BME280;63997;52.112;5.420;2023-07-20T10:47:09;101637.38;;;23.46;39.29
75418;BME280;63997;52.112;5.420;2023-07-20T10:49:58;101641.22;;;23.38;43.01
75418;BME280;63997;52.112;5.420;2023-07-20T10:52:26;101636.63;;;23.64;40.68
75418;BME280;63997;52.112;5.420;2023-07-20T10:55:15;101641.63;;;23.26;38.89
75418;BME280;63997;52.112;5.420;2023-07-20T10:57:42;101632.31;;;23.34;38.71
75418;BME280;63997;52.112;5.420;2023-07-20T11:00:13;101630.38;;;23.60;37.78
75418;BME280;63997;52.112;5.420;2023-07-20T11:02:47;101628.06;;;23.30;39.08
75418;BME280;63997;52.112;5.420;2023-07-20T11:05:43;101633.44;;;23.08;43.13
75418;BME280;63997;52.112;5.420;2023-07-20T11:08:11;101644.53;;;22.64;41.93
75418;BME280;63997;52.112;5.420;2023-07-20T11:10:38;101635.19;;;22.51;43.52
75418;BME280;63997;52.112;5.420;2023-07-20T11:13:18;101638.28;;;22.49;45.92
75418;BME280;63997;52.112;5.420;2023-07-20T11:18:28;101636.53;;;22.96;42.47
75418;BME280;63997;52.112;5.420;2023-07-20T11:20:58;101629.16;;;22.93;39.37
75418;BME280;63997;52.112;5.420;2023-07-20T11:23:24;101631.03;;;22.82;41.54
75418;BME280;63997;52.112;5.420;2023-07-20T11:25:51;101626.34;;;22.71;41.01
75418;BME280;63997;52.112;5.420;2023-07-20T11:28:18;101622.47;;;22.73;40.75
75418;BME280;63997;52.112;5.420;2023-07-20T11:30:44;101622.09;;;22.70;41.38
75418;BME280;63997;52.112;5.420;2023-07-20T11:33:11;101619.41;;;22.74;40.57
75418;BME280;63997;52.112;5.420;2023-07-20T11:35:48;101614.75;;;22.75;45.37
75418;BME280;63997;52.112;5.420;2023-07-20T11:38:17;101614.75;;;22.82;44.26
75418;BME280;63997;52.112;5.420;2023-07-20T11:40:44;101623.38;;;23.02;43.22
75418;BME280;63997;52.112;5.420;2023-07-20T11:43:14;101609.41;;;23.17;43.53
75418;BME280;63997;52.112;5.420;2023-07-20T11:45:45;101610.22;;;23.25;41.88
75418;BME280;63997;52.112;5.420;2023-07-20T11:48:15;101604.00;;;23.49;42.79
75418;BME280;63997;52.112;5.420;2023-07-20T11:50:42;101603.25;;;23.74;42.06
75418;BME280;63997;52.112;5.420;2023-07-20T11:53:08;101596.94;;;24.09;39.03
75418;BME280;63997;52.112;5.420;2023-07-20T11:55:36;101605.00;;;24.41;39.67
75418;BME280;63997;52.112;5.420;2023-07-20T11:58:06;101593.78;;;24.18;37.12
75418;BME280;63997;52.112;5.420;2023-07-20T12:00:34;101589.13;;;24.25;36.00
75418;BME280;63997;52.112;5.420;2023-07-20T12:03:01;101590.97;;;24.53;38.19
75418;BME280;63997;52.112;5.420;2023-07-20T12:05:27;101589.78;;;24.58;39.74
75418;BME280;63997;52.112;5.420;2023-07-20T12:07:54;101600.31;;;24.49;37.66
75418;BME280;63997;52.112;5.420;2023-07-20T12:10:28;101596.66;;;24.77;36.84
75418;BME280;63997;52.112;5.420;2023-07-20T12:12:54;101596.03;;;24.44;36.71
75418;BME280;63997;52.112;5.420;2023-07-20T12:15:27;101591.78;;;24.40;36.63
75418;BME280;63997;52.112;5.420;2023-07-20T12:17:57;101587.53;;;24.35;38.55
75418;BME280;63997;52.112;5.420;2023-07-20T12:22:56;101581.78;;;24.92;38.44
75418;BME280;63997;52.112;5.420;2023-07-20T12:25:28;101578.06;;;25.24;38.90
75418;BME280;63997;52.112;5.420;2023-07-20T12:28:00;101585.72;;;24.84;37.16
75418;BME280;63997;52.112;5.420;2023-07-20T12:30:28;101584.91;;;24.07;38.75
75418;BME280;63997;52.112;5.420;2023-07-20T12:32:55;101586.53;;;23.58;39.76
75418;BME280;63997;52.112;5.420;2023-07-20T12:35:22;101585.78;;;23.57;43.99
75418;BME280;63997;52.112;5.420;2023-07-20T12:37:48;101584.22;;;23.67;42.97
75418;BME280;63997;52.112;5.420;2023-07-20T12:40:15;101574.38;;;24.16;43.14
75418;BME280;63997;52.112;5.420;2023-07-20T12:42:42;101575.88;;;24.38;41.73
75418;BME280;63997;52.112;5.420;2023-07-20T12:45:08;101576.66;;;24.35;41.86
75418;BME280;63997;52.112;5.420;2023-07-20T12:47:35;101570.50;;;24.20;40.18
75418;BME280;63997;52.112;5.420;2023-07-20T12:50:01;101573.28;;;24.02;39.77
75418;BME280;63997;52.112;5.420;2023-07-20T12:52:30;101575.28;;;23.77;42.63
75418;BME280;63997;52.112;5.420;2023-07-20T12:54:56;101579.97;;;23.52;41.93
75418;BME280;63997;52.112;5.420;2023-07-20T12:57:23;101585.38;;;23.37;41.78
75418;BME280;63997;52.112;5.420;2023-07-20T12:59:49;101581.50;;;23.17;41.55
75418;BME280;63997;52.112;5.420;2023-07-20T13:02:16;101586.94;;;23.10;41.09
75418;BME280;63997;52.112;5.420;2023-07-20T13:04:43;101588.84;;;23.06;41.71
75418;BME280;63997;52.112;5.420;2023-07-20T13:07:10;101578.78;;;23.03;44.44